sensor_id;sensor_type;location;lat;lon;timestamp;temperature;humidity
52899;DHT22;38763;53.096;6.062;2022-12-05T00:01:55;4.30;99.90
52899;DHT22;38763;53.096;6.062;2022-12-05T00:04:20;4.30;99.90
52899;DHT22;38763;53.096;6.062;2022-12-05T00:06:46;4.40;99.90
52899;DHT22;38763;53.096;6.062;2022-12-05T00:09:12;4.30;99.90
52899;DHT22;38763;53.096;6.062;2022-12-05T00:11:40;4.30;99.90
52899;DHT22;38763;53.096;6.062;2022-12-05T00:14:07;4.30;99.90
52899;DHT22;38763;53.096;6.062;2022-12-05T00:16:35;4.30;99.90
52899;DHT22;38763;53.096;6.062;2022-12-05T00:19:02;4.30;99.90
52899;DHT22;38763;53.096;6.062;2022-12-05T00:21:30;4.40;99.90
52899;DHT22;38763;53.096;6.062;2022-12-05T00:23:56;4.40;99.90
52899;DHT22;38763;53.096;6.062;2022-12-05T00:26:22;4.40;99.90
52899;DHT22;38763;53.096;6.062;2022-12-05T00:28:49;4.40;99.90
52899;DHT22;38763;53.096;6.062;2022-12-05T00:31:18;4.40;99.90
52899;DHT22;38763;53.096;6.062;2022-12-05T00:33:44;4.40;99.90
52899;DHT22;38763;53.096;6.062;2022-12-05T00:36:16;4.40;99.90
52899;DHT22;38763;53.096;6.062;2022-12-05T00:38:42;4.50;99.90
52899;DHT22;38763;53.096;6.062;2022-12-05T00:41:10;4.40;99.90
52899;DHT22;38763;53.096;6.062;2022-12-05T00:43:37;4.50;99.90
52899;DHT22;38763;53.096;6.062;2022-12-05T00:46:03;4.40;99.90
52899;DHT22;38763;53.096;6.062;2022-12-05T00:48:29;4.40;99.90
52899;DHT22;38763;53.096;6.062;2022-12-05T00:51:02;4.40;99.90
52899;DHT22;38763;53.096;6.062;2022-12-05T00:53:28;4.40;99.90
52899;DHT22;38763;53.096;6.062;2022-12-05T00:55:53;4.40;99.90
52899;DHT22;38763;53.096;6.062;2022-12-05T00:58:19;4.40;99.90
52899;DHT22;38763;53.096;6.062;2022-12-05T01:00:44;4.40;99.90
52899;DHT22;38763;53.096;6.062;2022-12-05T01:03:10;4.40;99.90
52899;DHT22;38763;53.096;6.062;2022-12-05T01:05:36;4.40;99.90
52899;DHT22;38763;53.096;6.062;2022-12-05T01:08:01;4.50;99.90
52899;DHT22;38763;53.096;6.062;2022-12-05T01:10:27;4.50;99.90
52899;DHT22;38763;53.096;6.062;2022-12-05T01:12:52;4.50;99.90
52899;DHT22;38763;53.096;6.062;2022-12-05T01:15:18;4.60;99.90
52899;DHT22;38763;53.096;6.062;2022-12-05T01:17:43;4.60;99.90
52899;DHT22;38763;53.096;6.062;2022-12-05T01:20:09;4.60;99.90
52899;DHT22;38763;53.096;6.062;2022-12-05T01:22:35;4.60;99.90
52899;DHT22;38763;53.096;6.062;2022-12-05T01:25:01;4.60;99.90
52899;DHT22;38763;53.096;6.062;2022-12-05T01:27:27;4.70;99.90
52899;DHT22;38763;53.096;6.062;2022-12-05T01:29:53;4.70;99.90
52899;DHT22;38763;53.096;6.062;2022-12-05T01:32:18;4.70;99.90
52899;DHT22;38763;53.096;6.062;2022-12-05T01:34:44;4.70;99.90
52899;DHT22;38763;53.096;6.062;2022-12-05T01:37:10;4.70;99.90
52899;DHT22;38763;53.096;6.062;2022-12-05T01:39:35;4.60;99.90
52899;DHT22;38763;53.096;6.062;2022-12-05T01:42:03;4.80;99.90
52899;DHT22;38763;53.096;6.062;2022-12-05T01:46:55;4.80;99.90
52899;DHT22;38763;53.096;6.062;2022-12-05T01:49:31;4.60;99.90
52899;DHT22;38763;53.096;6.062;2022-12-05T01:52:01;4.80;99.90
52899;DHT22;38763;53.096;6.062;2022-12-05T01:54:29;4.70;99.90
52899;DHT22;38763;53.096;6.062;2022-12-05T01:57:01;4.70;99.90
52899;DHT22;38763;53.096;6.062;2022-12-05T01:59:31;4.70;99.90
52899;DHT22;38763;53.096;6.062;2022-12-05T02:01:58;4.80;99.90
52899;DHT22;38763;53.096;6.062;2022-12-05T02:04:23;4.80;99.90
52899;DHT22;38763;53.096;6.062;2022-12-05T02:06:49;4.80;99.90
52899;DHT22;38763;53.096;6.062;2022-12-05T02:09:15;4.80;99.90
52899;DHT22;38763;53.096;6.062;2022-12-05T02:11:52;4.80;99.90
52899;DHT22;38763;53.096;6.062;2022-12-05T02:14:51;4.80;99.90
52899;DHT22;38763;53.096;6.062;2022-12-05T02:23:46;4.80;99.90
52899;DHT22;38763;53.096;6.062;2022-12-05T02:34:14;4.90;99.90
52899;DHT22;38763;53.096;6.062;2022-12-05T02:36:50;4.90;99.90
52899;DHT22;38763;53.096;6.062;2022-12-05T02:39:25;4.90;99.90
52899;DHT22;38763;53.096;6.062;2022-12-05T02:42:20;4.90;99.90
52899;DHT22;38763;53.096;6.062;2022-12-05T02:44:51;5.00;99.90
52899;DHT22;38763;53.096;6.062;2022-12-05T02:47:21;5.00;99.90
52899;DHT22;38763;53.096;6.062;2022-12-05T02:49:50;5.00;99.90
52899;DHT22;38763;53.096;6.062;2022-12-05T02:52:18;5.00;99.90
52899;DHT22;38763;53.096;6.062;2022-12-05T02:54:46;5.00;99.90
52899;DHT22;38763;53.096;6.062;2022-12-05T02:57:13;5.00;99.90
52899;DHT22;38763;53.096;6.062;2022-12-05T02:59:39;5.00;99.90
52899;DHT22;38763;53.096;6.062;2022-12-05T03:02:07;5.10;99.90
52899;DHT22;38763;53.096;6.062;2022-12-05T03:04:34;5.10;99.90
52899;DHT22;38763;53.096;6.062;2022-12-05T03:07:06;5.20;99.90
52899;DHT22;38763;53.096;6.062;2022-12-05T03:09:48;5.20;99.90
52899;DHT22;38763;53.096;6.062;2022-12-05T03:12:27;5.10;99.90
52899;DHT22;38763;53.096;6.062;2022-12-05T03:15:01;5.10;99.90
52899;DHT22;38763;53.096;6.062;2022-12-05T03:17:33;5.10;99.90
52899;DHT22;38763;53.096;6.062;2022-12-05T03:22:36;5.10;99.90
52899;DHT22;38763;53.096;6.062;2022-12-05T03:25:03;5.20;99.90
52899;DHT22;38763;53.096;6.062;2022-12-05T03:30:16;5.10;99.90
52899;DHT22;38763;53.096;6.062;2022-12-05T03:33:01;5.10;99.90
52899;DHT22;38763;53.096;6.062;2022-12-05T03:35:51;5.10;99.90
52899;DHT22;38763;53.096;6.062;2022-12-05T03:38:28;5.10;99.90
52899;DHT22;38763;53.096;6.062;2022-12-05T03:41:12;5.10;99.90
52899;DHT22;38763;53.096;6.062;2022-12-05T03:51:43;5.10;99.90
52899;DHT22;38763;53.096;6.062;2022-12-05T03:57:28;5.10;99.90
52899;DHT22;38763;53.096;6.062;2022-12-05T04:00:03;5.20;99.90
52899;DHT22;38763;53.096;6.062;2022-12-05T04:02:54;5.20;99.90
52899;DHT22;38763;53.096;6.062;2022-12-05T04:08:02;5.10;99.90
52899;DHT22;38763;53.096;6.062;2022-12-05T04:10:31;5.10;99.90
52899;DHT22;38763;53.096;6.062;2022-12-05T04:12:59;5.10;99.90
52899;DHT22;38763;53.096;6.062;2022-12-05T04:15:49;5.10;99.90
52899;DHT22;38763;53.096;6.062;2022-12-05T04:18:36;5.10;99.90
52899;DHT22;38763;53.096;6.062;2022-12-05T04:21:03;5.10;99.90
52899;DHT22;38763;53.096;6.062;2022-12-05T04:23:48;5.10;99.90
52899;DHT22;38763;53.096;6.062;2022-12-05T04:26:35;5.10;99.90
52899;DHT22;38763;53.096;6.062;2022-12-05T04:29:18;5.10;99.90
52899;DHT22;38763;53.096;6.062;2022-12-05T04:31:48;5.00;99.90
52899;DHT22;38763;53.096;6.062;2022-12-05T04:34:16;5.00;99.90
52899;DHT22;38763;53.096;6.062;2022-12-05T04:36:54;5.10;99.90
52899;DHT22;38763;53.096;6.062;2022-12-05T04:42:09;5.00;99.90
52899;DHT22;38763;53.096;6.062;2022-12-05T04:44:43;5.10;99.90
52899;DHT22;38763;53.096;6.062;2022-12-05T04:47:11;5.10;99.90
52899;DHT22;38763;53.096;6.062;2022-12-05T04:49:40;5.10;99.90
52899;DHT22;38763;53.096;6.062;2022-12-05T04:52:09;5.10;99.90
52899;DHT22;38763;53.096;6.062;2022-12-05T04:55:04;5.00;99.90
52899;DHT22;38763;53.096;6.062;2022-12-05T04:57:41;5.10;99.90
52899;DHT22;38763;53.096;6.062;2022-12-05T05:00:09;5.20;99.90
52899;DHT22;38763;53.096;6.062;2022-12-05T05:02:55;5.00;99.90
52899;DHT22;38763;53.096;6.062;2022-12-05T05:05:23;5.00;99.90
52899;DHT22;38763;53.096;6.062;2022-12-05T05:07:51;5.10;99.90
52899;DHT22;38763;53.096;6.062;2022-12-05T05:10:34;5.10;99.90
52899;DHT22;38763;53.096;6.062;2022-12-05T05:13:02;5.20;99.90
52899;DHT22;38763;53.096;6.062;2022-12-05T05:15:27;5.00;99.90
52899;DHT22;38763;53.096;6.062;2022-12-05T05:17:53;5.10;99.90
52899;DHT22;38763;53.096;6.062;2022-12-05T05:20:19;5.10;99.90
52899;DHT22;38763;53.096;6.062;2022-12-05T05:22:56;5.10;99.90
52899;DHT22;38763;53.096;6.062;2022-12-05T05:25:23;5.20;99.90
52899;DHT22;38763;53.096;6.062;2022-12-05T05:27:50;5.10;99.90
52899;DHT22;38763;53.096;6.062;2022-12-05T05:30:17;5.20;99.90
52899;DHT22;38763;53.096;6.062;2022-12-05T05:32:43;5.20;99.90
52899;DHT22;38763;53.096;6.062;2022-12-05T05:35:09;5.10;99.90
52899;DHT22;38763;53.096;6.062;2022-12-05T05:37:34;5.20;99.90
52899;DHT22;38763;53.096;6.062;2022-12-05T05:40:00;5.10;99.90
52899;DHT22;38763;53.096;6.062;2022-12-05T05:42:25;5.20;99.90
52899;DHT22;38763;53.096;6.062;2022-12-05T05:44:51;5.20;99.90
52899;DHT22;38763;53.096;6.062;2022-12-05T05:47:17;5.10;99.90
52899;DHT22;38763;53.096;6.062;2022-12-05T05:49:42;5.20;99.90
52899;DHT22;38763;53.096;6.062;2022-12-05T05:52:08;5.20;99.90
52899;DHT22;38763;53.096;6.062;2022-12-05T05:54:33;5.30;99.90
52899;DHT22;38763;53.096;6.062;2022-12-05T05:56:59;5.20;99.90
52899;DHT22;38763;53.096;6.062;2022-12-05T05:59:24;5.20;99.90
52899;DHT22;38763;53.096;6.062;2022-12-05T06:01:50;5.20;99.90
52899;DHT22;38763;53.096;6.062;2022-12-05T06:04:16;5.20;99.90
52899;DHT22;38763;53.096;6.062;2022-12-05T06:06:41;5.10;99.90
52899;DHT22;38763;53.096;6.062;2022-12-05T06:09:07;5.20;99.90
52899;DHT22;38763;53.096;6.062;2022-12-05T06:11:32;5.20;99.90
52899;DHT22;38763;53.096;6.062;2022-12-05T06:13:59;5.20;99.90
52899;DHT22;38763;53.096;6.062;2022-12-05T06:16:29;5.20;99.90
52899;DHT22;38763;53.096;6.062;2022-12-05T06:18:55;5.20;99.90
52899;DHT22;38763;53.096;6.062;2022-12-05T06:21:21;5.20;99.90
52899;DHT22;38763;53.096;6.062;2022-12-05T06:23:48;5.20;99.90
52899;DHT22;38763;53.096;6.062;2022-12-05T06:26:16;5.20;99.90
52899;DHT22;38763;53.096;6.062;2022-12-05T06:28:42;5.20;99.90
52899;DHT22;38763;53.096;6.062;2022-12-05T06:31:13;5.20;99.90
52899;DHT22;38763;53.096;6.062;2022-12-05T06:33:39;5.20;99.90
52899;DHT22;38763;53.096;6.062;2022-12-05T06:36:12;5.30;99.90
52899;DHT22;38763;53.096;6.062;2022-12-05T06:38:38;5.20;99.90
52899;DHT22;38763;53.096;6.062;2022-12-05T06:41:09;5.20;99.90
52899;DHT22;38763;53.096;6.062;2022-12-05T06:43:35;5.30;99.90
52899;DHT22;38763;53.096;6.062;2022-12-05T06:46:05;5.20;99.90
52899;DHT22;38763;53.096;6.062;2022-12-05T06:48:31;5.30;99.90
52899;DHT22;38763;53.096;6.062;2022-12-05T06:50:57;5.20;99.90
52899;DHT22;38763;53.096;6.062;2022-12-05T06:53:22;5.30;99.90
52899;DHT22;38763;53.096;6.062;2022-12-05T06:56:15;5.20;99.90
52899;DHT22;38763;53.096;6.062;2022-12-05T06:58:45;5.30;99.90
52899;DHT22;38763;53.096;6.062;2022-12-05T07:01:17;5.20;99.90
52899;DHT22;38763;53.096;6.062;2022-12-05T07:04:02;5.20;99.90
52899;DHT22;38763;53.096;6.062;2022-12-05T07:06:28;5.30;99.90
52899;DHT22;38763;53.096;6.062;2022-12-05T07:08:53;5.20;99.90
52899;DHT22;38763;53.096;6.062;2022-12-05T07:11:19;5.30;99.90
52899;DHT22;38763;53.096;6.062;2022-12-05T07:13:45;5.30;99.90
52899;DHT22;38763;53.096;6.062;2022-12-05T07:16:11;5.30;99.90
52899;DHT22;38763;53.096;6.062;2022-12-05T07:18:37;5.20;99.90
52899;DHT22;38763;53.096;6.062;2022-12-05T07:21:06;5.20;99.90
52899;DHT22;38763;53.096;6.062;2022-12-05T07:23:32;5.30;99.90
52899;DHT22;38763;53.096;6.062;2022-12-05T07:25:57;5.30;99.90
52899;DHT22;38763;53.096;6.062;2022-12-05T07:28:23;5.20;99.90
52899;DHT22;38763;53.096;6.062;2022-12-05T07:30:59;5.30;99.90
52899;DHT22;38763;53.096;6.062;2022-12-05T07:33:25;5.30;99.90
52899;DHT22;38763;53.096;6.062;2022-12-05T07:35:50;5.30;99.90
52899;DHT22;38763;53.096;6.062;2022-12-05T07:38:16;5.20;99.90
52899;DHT22;38763;53.096;6.062;2022-12-05T07:40:42;5.30;99.90
52899;DHT22;38763;53.096;6.062;2022-12-05T07:43:07;5.20;99.90
52899;DHT22;38763;53.096;6.062;2022-12-05T07:45:33;5.20;99.90
52899;DHT22;38763;53.096;6.062;2022-12-05T07:48:00;5.30;99.90
52899;DHT22;38763;53.096;6.062;2022-12-05T07:50:25;5.40;99.90
52899;DHT22;38763;53.096;6.062;2022-12-05T07:52:51;5.20;99.90
52899;DHT22;38763;53.096;6.062;2022-12-05T07:55:17;5.40;99.90
52899;DHT22;38763;53.096;6.062;2022-12-05T07:57:42;5.30;99.90
52899;DHT22;38763;53.096;6.062;2022-12-05T08:00:08;5.40;99.90
52899;DHT22;38763;53.096;6.062;2022-12-05T08:02:34;5.30;99.90
52899;DHT22;38763;53.096;6.062;2022-12-05T08:05:01;5.30;99.90
52899;DHT22;38763;53.096;6.062;2022-12-05T08:07:26;5.40;99.90
52899;DHT22;38763;53.096;6.062;2022-12-05T08:09:52;5.40;99.90
52899;DHT22;38763;53.096;6.062;2022-12-05T08:12:18;5.40;99.90
52899;DHT22;38763;53.096;6.062;2022-12-05T08:14:43;5.30;99.90
52899;DHT22;38763;53.096;6.062;2022-12-05T08:17:09;5.40;99.90
52899;DHT22;38763;53.096;6.062;2022-12-05T08:19:34;5.40;99.90
52899;DHT22;38763;53.096;6.062;2022-12-05T08:22:00;5.40;99.90
52899;DHT22;38763;53.096;6.062;2022-12-05T08:24:26;5.40;99.90
52899;DHT22;38763;53.096;6.062;2022-12-05T08:26:51;5.40;99.90
52899;DHT22;38763;53.096;6.062;2022-12-05T08:29:20;5.50;99.90
52899;DHT22;38763;53.096;6.062;2022-12-05T08:31:48;5.40;99.90
52899;DHT22;38763;53.096;6.062;2022-12-05T08:34:14;5.50;99.90
52899;DHT22;38763;53.096;6.062;2022-12-05T08:36:40;5.40;99.90
52899;DHT22;38763;53.096;6.062;2022-12-05T08:39:07;5.40;99.90
52899;DHT22;38763;53.096;6.062;2022-12-05T08:41:33;5.40;99.90
52899;DHT22;38763;53.096;6.062;2022-12-05T08:44:01;5.40;99.90
52899;DHT22;38763;53.096;6.062;2022-12-05T08:46:31;5.50;99.90
52899;DHT22;38763;53.096;6.062;2022-12-05T08:48:57;5.50;99.90
52899;DHT22;38763;53.096;6.062;2022-12-05T08:51:23;5.50;99.90
52899;DHT22;38763;53.096;6.062;2022-12-05T08:53:48;5.40;99.90
52899;DHT22;38763;53.096;6.062;2022-12-05T08:56:14;5.50;99.90
52899;DHT22;38763;53.096;6.062;2022-12-05T08:58:40;5.50;99.90
52899;DHT22;38763;53.096;6.062;2022-12-05T09:01:13;5.40;99.90
52899;DHT22;38763;53.096;6.062;2022-12-05T09:03:39;5.60;99.90
52899;DHT22;38763;53.096;6.062;2022-12-05T09:06:10;5.40;99.90
52899;DHT22;38763;53.096;6.062;2022-12-05T09:08:36;5.50;99.90
52899;DHT22;38763;53.096;6.062;2022-12-05T09:11:19;5.50;99.90
52899;DHT22;38763;53.096;6.062;2022-12-05T09:13:46;5.50;99.90
52899;DHT22;38763;53.096;6.062;2022-12-05T09:16:20;5.50;99.90
52899;DHT22;38763;53.096;6.062;2022-12-05T09:18:47;5.60;99.90
52899;DHT22;38763;53.096;6.062;2022-12-05T09:21:21;5.60;99.90
52899;DHT22;38763;53.096;6.062;2022-12-05T09:23:48;5.60;99.90
52899;DHT22;38763;53.096;6.062;2022-12-05T09:26:16;5.50;99.90
52899;DHT22;38763;53.096;6.062;2022-12-05T09:28:42;5.50;99.90
52899;DHT22;38763;53.096;6.062;2022-12-05T09:31:14;5.60;99.90
52899;DHT22;38763;53.096;6.062;2022-12-05T09:33:40;5.60;99.90
52899;DHT22;38763;53.096;6.062;2022-12-05T09:36:11;5.60;99.90
52899;DHT22;38763;53.096;6.062;2022-12-05T09:38:38;5.60;99.90
52899;DHT22;38763;53.096;6.062;2022-12-05T09:44:01;5.60;99.90
52899;DHT22;38763;53.096;6.062;2022-12-05T09:46:49;5.60;99.90
52899;DHT22;38763;53.096;6.062;2022-12-05T09:49:17;5.60;99.90
52899;DHT22;38763;53.096;6.062;2022-12-05T09:51:45;5.60;99.90
52899;DHT22;38763;53.096;6.062;2022-12-05T09:54:12;5.70;99.90
52899;DHT22;38763;53.096;6.062;2022-12-05T09:56:39;5.70;99.90
52899;DHT22;38763;53.096;6.062;2022-12-05T09:59:12;5.70;99.90
52899;DHT22;38763;53.096;6.062;2022-12-05T10:01:54;5.70;99.90
52899;DHT22;38763;53.096;6.062;2022-12-05T10:20:51;5.70;99.90
52899;DHT22;38763;53.096;6.062;2022-12-05T10:23:31;5.60;99.90
52899;DHT22;38763;53.096;6.062;2022-12-05T10:26:03;5.60;99.90
52899;DHT22;38763;53.096;6.062;2022-12-05T10:28:40;5.60;99.90
52899;DHT22;38763;53.096;6.062;2022-12-05T10:31:13;5.70;99.90
52899;DHT22;38763;53.096;6.062;2022-12-05T10:33:48;5.70;99.90
52899;DHT22;38763;53.096;6.062;2022-12-05T10:36:16;5.70;99.90
52899;DHT22;38763;53.096;6.062;2022-12-05T10:38:42;5.60;99.90
52899;DHT22;38763;53.096;6.062;2022-12-05T10:41:11;5.70;99.90
52899;DHT22;38763;53.096;6.062;2022-12-05T10:43:40;5.60;99.90
52899;DHT22;38763;53.096;6.062;2022-12-05T10:46:07;5.70;99.90
52899;DHT22;38763;53.096;6.062;2022-12-05T10:48:36;5.60;99.90
52899;DHT22;38763;53.096;6.062;2022-12-05T10:51:03;5.60;99.90
52899;DHT22;38763;53.096;6.062;2022-12-05T10:53:39;5.70;99.90
52899;DHT22;38763;53.096;6.062;2022-12-05T10:56:41;5.60;99.90
52899;DHT22;38763;53.096;6.062;2022-12-05T10:59:09;5.60;99.90
52899;DHT22;38763;53.096;6.062;2022-12-05T11:01:37;5.70;99.90
52899;DHT22;38763;53.096;6.062;2022-12-05T11:04:09;5.70;99.90
52899;DHT22;38763;53.096;6.062;2022-12-05T11:06:53;5.60;99.90
52899;DHT22;38763;53.096;6.062;2022-12-05T11:09:22;5.60;99.90
52899;DHT22;38763;53.096;6.062;2022-12-05T11:14:57;5.50;99.90
52899;DHT22;38763;53.096;6.062;2022-12-05T11:17:32;5.50;99.90
52899;DHT22;38763;53.096;6.062;2022-12-05T11:19:58;5.60;99.90
52899;DHT22;38763;53.096;6.062;2022-12-05T11:22:34;5.60;99.90
52899;DHT22;38763;53.096;6.062;2022-12-05T11:25:00;5.60;99.90
52899;DHT22;38763;53.096;6.062;2022-12-05T11:27:46;5.60;99.90
52899;DHT22;38763;53.096;6.062;2022-12-05T11:32:37;5.60;99.90
52899;DHT22;38763;53.096;6.062;2022-12-05T11:37:55;5.60;99.90
52899;DHT22;38763;53.096;6.062;2022-12-05T11:40:46;5.50;99.90
52899;DHT22;38763;53.096;6.062;2022-12-05T11:55:15;5.50;99.90
52899;DHT22;38763;53.096;6.062;2022-12-05T12:06:26;5.60;99.90
52899;DHT22;38763;53.096;6.062;2022-12-05T12:12:00;5.50;99.90
52899;DHT22;38763;53.096;6.062;2022-12-05T12:17:09;5.40;99.90
52899;DHT22;38763;53.096;6.062;2022-12-05T12:19:47;5.40;99.90
52899;DHT22;38763;53.096;6.062;2022-12-05T12:36:48;5.50;99.90
52899;DHT22;38763;53.096;6.062;2022-12-05T12:47:43;5.60;99.90
52899;DHT22;38763;53.096;6.062;2022-12-05T12:50:23;5.60;99.90
52899;DHT22;38763;53.096;6.062;2022-12-05T12:55:35;5.60;99.90
52899;DHT22;38763;53.096;6.062;2022-12-05T12:58:15;5.50;99.90
52899;DHT22;38763;53.096;6.062;2022-12-05T13:03:56;5.50;99.90
52899;DHT22;38763;53.096;6.062;2022-12-05T13:06:44;5.50;99.90
52899;DHT22;38763;53.096;6.062;2022-12-05T13:09:27;5.50;99.90
52899;DHT22;38763;53.096;6.062;2022-12-05T13:11:58;5.40;99.90
52899;DHT22;38763;53.096;6.062;2022-12-05T13:14:27;5.60;99.90
52899;DHT22;38763;53.096;6.062;2022-12-05T13:16:54;5.40;99.90
52899;DHT22;38763;53.096;6.062;2022-12-05T13:19:31;5.50;99.90
52899;DHT22;38763;53.096;6.062;2022-12-05T13:22:03;5.50;99.90
52899;DHT22;38763;53.096;6.062;2022-12-05T13:24:30;5.40;99.90
52899;DHT22;38763;53.096;6.062;2022-12-05T13:26:59;5.60;99.90
52899;DHT22;38763;53.096;6.062;2022-12-05T13:29:33;5.40;99.90
52899;DHT22;38763;53.096;6.062;2022-12-05T13:32:02;5.30;99.90
52899;DHT22;38763;53.096;6.062;2022-12-05T13:34:46;5.40;99.90
52899;DHT22;38763;53.096;6.062;2022-12-05T13:37:31;5.30;99.90
52899;DHT22;38763;53.096;6.062;2022-12-05T13:40:18;5.50;99.90
52899;DHT22;38763;53.096;6.062;2022-12-05T13:43:05;5.50;99.90
52899;DHT22;38763;53.096;6.062;2022-12-05T13:45:31;5.30;99.90
52899;DHT22;38763;53.096;6.062;2022-12-05T13:53:38;5.40;99.90
52899;DHT22;38763;53.096;6.062;2022-12-05T13:56:23;5.30;99.90
52899;DHT22;38763;53.096;6.062;2022-12-05T13:58:56;5.30;99.90
52899;DHT22;38763;53.096;6.062;2022-12-05T14:12:27;5.50;99.90
52899;DHT22;38763;53.096;6.062;2022-12-05T14:17:40;5.40;99.90
52899;DHT22;38763;53.096;6.062;2022-12-05T14:20:21;5.40;99.90
52899;DHT22;38763;53.096;6.062;2022-12-05T14:29:00;5.30;99.90
52899;DHT22;38763;53.096;6.062;2022-12-05T14:31:33;5.50;99.90
52899;DHT22;38763;53.096;6.062;2022-12-05T14:34:16;5.50;99.90
52899;DHT22;38763;53.096;6.062;2022-12-05T14:36:54;5.50;99.90
52899;DHT22;38763;53.096;6.062;2022-12-05T14:39:21;5.30;99.90
52899;DHT22;38763;53.096;6.062;2022-12-05T14:41:58;5.50;99.90
52899;DHT22;38763;53.096;6.062;2022-12-05T14:44:26;5.50;99.90
52899;DHT22;38763;53.096;6.062;2022-12-05T14:47:00;5.50;99.90
52899;DHT22;38763;53.096;6.062;2022-12-05T14:49:52;5.50;99.90
52899;DHT22;38763;53.096;6.062;2022-12-05T14:52:25;5.40;99.90
52899;DHT22;38763;53.096;6.062;2022-12-05T14:55:01;5.50;99.90
52899;DHT22;38763;53.096;6.062;2022-12-05T14:57:28;5.30;99.90
52899;DHT22;38763;53.096;6.062;2022-12-05T15:00:01;5.50;99.90
52899;DHT22;38763;53.096;6.062;2022-12-05T15:02:33;5.40;99.90
52899;DHT22;38763;53.096;6.062;2022-12-05T15:07:33;5.30;99.90
52899;DHT22;38763;53.096;6.062;2022-12-05T15:10:24;5.30;99.90
52899;DHT22;38763;53.096;6.062;2022-12-05T15:13:17;5.30;99.90
52899;DHT22;38763;53.096;6.062;2022-12-05T15:15:46;5.30;99.90
52899;DHT22;38763;53.096;6.062;2022-12-05T15:18:27;5.40;99.90
52899;DHT22;38763;53.096;6.062;2022-12-05T15:21:35;5.40;99.90
52899;DHT22;38763;53.096;6.062;2022-12-05T15:24:05;5.40;99.90
52899;DHT22;38763;53.096;6.062;2022-12-05T15:26:39;5.50;99.90
52899;DHT22;38763;53.096;6.062;2022-12-05T15:29:14;5.20;99.90
52899;DHT22;38763;53.096;6.062;2022-12-05T15:42:16;5.40;99.90
52899;DHT22;38763;53.096;6.062;2022-12-05T15:44:42;5.20;99.90
52899;DHT22;38763;53.096;6.062;2022-12-05T15:47:22;5.40;99.90
52899;DHT22;38763;53.096;6.062;2022-12-05T15:49:49;5.40;99.90
52899;DHT22;38763;53.096;6.062;2022-12-05T15:52:37;5.30;99.90
52899;DHT22;38763;53.096;6.062;2022-12-05T15:55:11;5.20;99.90
52899;DHT22;38763;53.096;6.062;2022-12-05T16:00:39;5.20;99.90
52899;DHT22;38763;53.096;6.062;2022-12-05T16:03:20;5.20;99.90
52899;DHT22;38763;53.096;6.062;2022-12-05T16:05:58;5.20;99.90
52899;DHT22;38763;53.096;6.062;2022-12-05T16:08:25;5.20;99.90
52899;DHT22;38763;53.096;6.062;2022-12-05T16:10:55;5.30;99.90
52899;DHT22;38763;53.096;6.062;2022-12-05T16:13:22;5.30;99.90
52899;DHT22;38763;53.096;6.062;2022-12-05T16:15:51;5.20;99.90
52899;DHT22;38763;53.096;6.062;2022-12-05T16:18:28;5.20;99.90
52899;DHT22;38763;53.096;6.062;2022-12-05T16:20:55;5.20;99.90
52899;DHT22;38763;53.096;6.062;2022-12-05T16:23:32;5.20;99.90
52899;DHT22;38763;53.096;6.062;2022-12-05T16:26:19;5.30;99.90
52899;DHT22;38763;53.096;6.062;2022-12-05T16:29:01;5.20;99.90
52899;DHT22;38763;53.096;6.062;2022-12-05T16:31:27;5.30;99.90
52899;DHT22;38763;53.096;6.062;2022-12-05T16:34:20;5.40;99.90
52899;DHT22;38763;53.096;6.062;2022-12-05T16:36:47;5.30;99.90
52899;DHT22;38763;53.096;6.062;2022-12-05T16:39:14;5.20;99.90
52899;DHT22;38763;53.096;6.062;2022-12-05T16:41:40;5.40;99.90
52899;DHT22;38763;53.096;6.062;2022-12-05T16:46:56;5.30;99.90
52899;DHT22;38763;53.096;6.062;2022-12-05T16:49:32;5.20;99.90
52899;DHT22;38763;53.096;6.062;2022-12-05T16:54:32;5.20;99.90
52899;DHT22;38763;53.096;6.062;2022-12-05T16:56:58;5.30;99.90
52899;DHT22;38763;53.096;6.062;2022-12-05T16:59:32;5.30;99.90
52899;DHT22;38763;53.096;6.062;2022-12-05T17:01:58;5.20;99.90
52899;DHT22;38763;53.096;6.062;2022-12-05T17:04:26;5.40;99.90
52899;DHT22;38763;53.096;6.062;2022-12-05T17:06:52;5.40;99.90
52899;DHT22;38763;53.096;6.062;2022-12-05T17:09:17;5.50;99.90
52899;DHT22;38763;53.096;6.062;2022-12-05T17:11:44;5.30;99.90
52899;DHT22;38763;53.096;6.062;2022-12-05T17:14:13;5.40;99.90
52899;DHT22;38763;53.096;6.062;2022-12-05T17:16:40;5.30;99.90
52899;DHT22;38763;53.096;6.062;2022-12-05T17:19:06;5.40;99.90
52899;DHT22;38763;53.096;6.062;2022-12-05T17:21:33;5.50;99.90
52899;DHT22;38763;53.096;6.062;2022-12-05T17:23:59;5.50;99.90
52899;DHT22;38763;53.096;6.062;2022-12-05T17:26:25;5.50;99.90
52899;DHT22;38763;53.096;6.062;2022-12-05T17:28:51;5.50;99.90
52899;DHT22;38763;53.096;6.062;2022-12-05T17:31:23;5.30;99.90
52899;DHT22;38763;53.096;6.062;2022-12-05T17:33:51;5.30;99.90
52899;DHT22;38763;53.096;6.062;2022-12-05T17:36:17;5.40;99.90
52899;DHT22;38763;53.096;6.062;2022-12-05T17:38:45;5.40;99.90
52899;DHT22;38763;53.096;6.062;2022-12-05T17:41:16;5.30;99.90
52899;DHT22;38763;53.096;6.062;2022-12-05T17:43:42;5.30;99.90
52899;DHT22;38763;53.096;6.062;2022-12-05T17:46:08;5.50;99.90
52899;DHT22;38763;53.096;6.062;2022-12-05T17:48:34;5.30;99.90
52899;DHT22;38763;53.096;6.062;2022-12-05T17:51:00;5.30;99.90
52899;DHT22;38763;53.096;6.062;2022-12-05T17:53:27;5.30;99.90
52899;DHT22;38763;53.096;6.062;2022-12-05T17:55:52;5.50;99.90
52899;DHT22;38763;53.096;6.062;2022-12-05T17:58:18;5.50;99.90
52899;DHT22;38763;53.096;6.062;2022-12-05T18:00:45;5.40;99.90
52899;DHT22;38763;53.096;6.062;2022-12-05T18:03:17;5.30;99.90
52899;DHT22;38763;53.096;6.062;2022-12-05T18:05:43;5.50;99.90
52899;DHT22;38763;53.096;6.062;2022-12-05T18:08:10;5.50;99.90
52899;DHT22;38763;53.096;6.062;2022-12-05T18:10:36;5.50;99.90
52899;DHT22;38763;53.096;6.062;2022-12-05T18:13:04;5.40;99.90
52899;DHT22;38763;53.096;6.062;2022-12-05T18:15:30;5.50;99.90
52899;DHT22;38763;53.096;6.062;2022-12-05T18:17:56;5.40;99.90
52899;DHT22;38763;53.096;6.062;2022-12-05T18:20:22;5.30;99.90
52899;DHT22;38763;53.096;6.062;2022-12-05T18:22:48;5.30;99.90
52899;DHT22;38763;53.096;6.062;2022-12-05T18:25:15;5.40;99.90
52899;DHT22;38763;53.096;6.062;2022-12-05T18:27:41;5.40;99.90
52899;DHT22;38763;53.096;6.062;2022-12-05T18:30:07;5.30;99.90
52899;DHT22;38763;53.096;6.062;2022-12-05T18:32:33;5.30;99.90
52899;DHT22;38763;53.096;6.062;2022-12-05T18:34:59;5.40;99.90
52899;DHT22;38763;53.096;6.062;2022-12-05T18:37:26;5.30;99.90
52899;DHT22;38763;53.096;6.062;2022-12-05T18:39:53;5.50;99.90
52899;DHT22;38763;53.096;6.062;2022-12-05T18:42:18;5.50;99.90
52899;DHT22;38763;53.096;6.062;2022-12-05T18:44:44;5.30;99.90
52899;DHT22;38763;53.096;6.062;2022-12-05T18:47:10;5.30;99.90
52899;DHT22;38763;53.096;6.062;2022-12-05T18:49:35;5.40;99.90
52899;DHT22;38763;53.096;6.062;2022-12-05T18:52:02;5.50;99.90
52899;DHT22;38763;53.096;6.062;2022-12-05T18:54:28;5.40;99.90